sensor_id;sensor_type;location;lat;lon;timestamp;pressure;altitude;pressure_sealevel;temperature;humidity
22964;BME280;11648;49.306;6.934;2023-08-06T00:01:26;97479.00;;;18.54;82.71
22964;BME280;11648;49.306;6.934;2023-08-06T00:03:52;97477.34;;;18.67;82.85
22964;BME280;11648;49.306;6.934;2023-08-06T00:06:19;97472.06;;;18.82;83.07
22964;BME280;11648;49.306;6.934;2023-08-06T00:08:46;97471.03;;;18.68;83.15
22964;BME280;11648;49.306;6.934;2023-08-06T00:11:13;97470.44;;;18.93;82.43
22964;BME280;11648;49.306;6.934;2023-08-06T00:13:40;97474.78;;;18.80;82.26
22964;BME280;11648;49.306;6.934;2023-08-06T00:16:13;97474.16;;;18.91;81.64
22964;BME280;11648;49.306;6.934;2023-08-06T00:18:40;97476.38;;;18.68;82.13
22964;BME280;11648;49.306;6.934;2023-08-06T00:21:07;97464.50;;;18.74;82.11
22964;BME280;11648;49.306;6.934;2023-08-06T00:23:33;97462.06;;;18.85;81.58
22964;BME280;11648;49.306;6.934;2023-08-06T00:26:00;97456.81;;;18.84;81.65
22964;BME280;11648;49.306;6.934;2023-08-06T00:28:27;97449.53;;;18.71;82.35
22964;BME280;11648;49.306;6.934;2023-08-06T00:30:54;97451.69;;;18.65;81.83
22964;BME280;11648;49.306;6.934;2023-08-06T00:33:23;97450.38;;;18.72;81.82
22964;BME280;11648;49.306;6.934;2023-08-06T00:35:50;97445.44;;;18.66;81.75
22964;BME280;11648;49.306;6.934;2023-08-06T00:38:17;97449.31;;;18.60;82.11
22964;BME280;11648;49.306;6.934;2023-08-06T00:40:44;97441.06;;;18.49;81.92
22964;BME280;11648;49.306;6.934;2023-08-06T00:43:11;97449.09;;;18.18;83.02
22964;BME280;11648;49.306;6.934;2023-08-06T00:45:38;97457.88;;;18.20;82.17
22964;BME280;11648;49.306;6.934;2023-08-06T00:48:05;97449.78;;;18.37;81.81
22964;BME280;11648;49.306;6.934;2023-08-06T00:50:33;97451.38;;;18.40;81.15
22964;BME280;11648;49.306;6.934;2023-08-06T00:53:00;97454.31;;;18.51;80.17
22964;BME280;11648;49.306;6.934;2023-08-06T00:55:27;97452.16;;;18.57;79.83
22964;BME280;11648;49.306;6.934;2023-08-06T00:57:55;97459.47;;;18.54;80.24
22964;BME280;11648;49.306;6.934;2023-08-06T01:00:25;97457.13;;;18.63;79.70
22964;BME280;11648;49.306;6.934;2023-08-06T01:02:53;97467.81;;;18.63;80.03
22964;BME280;11648;49.306;6.934;2023-08-06T01:05:20;97460.50;;;18.51;81.12
22964;BME280;11648;49.306;6.934;2023-08-06T01:10:55;97457.84;;;18.51;82.00
22964;BME280;11648;49.306;6.934;2023-08-06T01:13:48;97464.31;;;18.32;83.38
22964;BME280;11648;49.306;6.934;2023-08-06T01:16:19;97461.09;;;18.41;83.15
22964;BME280;11648;49.306;6.934;2023-08-06T01:18:50;97458.63;;;18.38;83.94
22964;BME280;11648;49.306;6.934;2023-08-06T01:21:17;97456.28;;;18.47;83.93
22964;BME280;11648;49.306;6.934;2023-08-06T01:23:45;97453.91;;;18.43;83.99
22964;BME280;11648;49.306;6.934;2023-08-06T01:26:39;97449.78;;;18.37;84.27
22964;BME280;11648;49.306;6.934;2023-08-06T01:29:15;97449.94;;;18.34;84.25
22964;BME280;11648;49.306;6.934;2023-08-06T01:31:48;97450.13;;;18.31;84.70
22964;BME280;11648;49.306;6.934;2023-08-06T01:34:23;97448.47;;;18.44;84.07
22964;BME280;11648;49.306;6.934;2023-08-06T01:36:51;97442.88;;;18.49;84.17
22964;BME280;11648;49.306;6.934;2023-08-06T01:39:18;97445.53;;;18.49;84.13
22964;BME280;11648;49.306;6.934;2023-08-06T01:41:48;97450.03;;;18.33;85.04
22964;BME280;11648;49.306;6.934;2023-08-06T01:44:16;97439.97;;;18.38;85.08
22964;BME280;11648;49.306;6.934;2023-08-06T01:46:43;97439.91;;;18.23;85.42
22964;BME280;11648;49.306;6.934;2023-08-06T01:49:10;97431.13;;;18.37;85.52
22964;BME280;11648;49.306;6.934;2023-08-06T01:51:36;97439.75;;;18.26;85.83
22964;BME280;11648;49.306;6.934;2023-08-06T01:54:03;97438.63;;;18.31;85.16
22964;BME280;11648;49.306;6.934;2023-08-06T01:56:30;97443.25;;;18.27;85.31
22964;BME280;11648;49.306;6.934;2023-08-06T01:58:57;97428.94;;;18.14;85.62
22964;BME280;11648;49.306;6.934;2023-08-06T02:01:24;97443.72;;;18.04;85.53
22964;BME280;11648;49.306;6.934;2023-08-06T02:03:51;97444.69;;;18.03;85.62
22964;BME280;11648;49.306;6.934;2023-08-06T02:06:18;97441.22;;;18.01;86.26
22964;BME280;11648;49.306;6.934;2023-08-06T02:08:44;97442.06;;;17.86;86.75
22964;BME280;11648;49.306;6.934;2023-08-06T02:11:11;97448.56;;;17.82;86.73
22964;BME280;11648;49.306;6.934;2023-08-06T02:13:38;97439.88;;;17.78;86.73
22964;BME280;11648;49.306;6.934;2023-08-06T02:16:07;97435.97;;;17.68;87.07
22964;BME280;11648;49.306;6.934;2023-08-06T02:18:35;97439.53;;;17.84;86.47
22964;BME280;11648;49.306;6.934;2023-08-06T02:21:01;97437.00;;;17.97;85.78
22964;BME280;11648;49.306;6.934;2023-08-06T02:23:28;97431.28;;;17.89;85.52
22964;BME280;11648;49.306;6.934;2023-08-06T02:26:02;97425.84;;;18.06;84.94
22964;BME280;11648;49.306;6.934;2023-08-06T02:28:29;97423.09;;;18.07;85.01
22964;BME280;11648;49.306;6.934;2023-08-06T02:30:56;97424.31;;;18.02;84.77
22964;BME280;11648;49.306;6.934;2023-08-06T02:33:23;97424.72;;;17.78;85.49
22964;BME280;11648;49.306;6.934;2023-08-06T02:35:50;97422.25;;;17.91;84.97
22964;BME280;11648;49.306;6.934;2023-08-06T02:38:16;97421.31;;;17.76;85.19
22964;BME280;11648;49.306;6.934;2023-08-06T02:40:44;97422.00;;;17.96;84.67
22964;BME280;11648;49.306;6.934;2023-08-06T02:43:14;97417.25;;;18.01;84.78
22964;BME280;11648;49.306;6.934;2023-08-06T02:45:41;97416.44;;;17.85;85.10
22964;BME280;11648;49.306;6.934;2023-08-06T02:48:08;97413.06;;;17.65;85.53
22964;BME280;11648;49.306;6.934;2023-08-06T02:50:39;97417.88;;;17.90;84.68
22964;BME280;11648;49.306;6.934;2023-08-06T02:53:07;97421.22;;;17.62;85.34
22964;BME280;11648;49.306;6.934;2023-08-06T02:55:34;97412.22;;;17.81;83.85
22964;BME280;11648;49.306;6.934;2023-08-06T02:58:05;97422.19;;;17.77;84.82
22964;BME280;11648;49.306;6.934;2023-08-06T03:00:37;97408.94;;;17.75;85.15
22964;BME280;11648;49.306;6.934;2023-08-06T03:03:05;97419.75;;;17.72;85.62
22964;BME280;11648;49.306;6.934;2023-08-06T03:05:55;97411.34;;;17.64;85.48
22964;BME280;11648;49.306;6.934;2023-08-06T03:08:38;97421.41;;;17.59;85.83
22964;BME280;11648;49.306;6.934;2023-08-06T03:11:05;97419.06;;;17.69;85.71
22964;BME280;11648;49.306;6.934;2023-08-06T03:13:32;97415.97;;;17.61;85.33
22964;BME280;11648;49.306;6.934;2023-08-06T03:15:59;97409.47;;;17.66;85.42
22964;BME280;11648;49.306;6.934;2023-08-06T03:18:29;97410.09;;;17.54;85.29
22964;BME280;11648;49.306;6.934;2023-08-06T03:20:59;97411.72;;;17.74;85.17
22964;BME280;11648;49.306;6.934;2023-08-06T03:23:28;97405.50;;;17.58;85.28
22964;BME280;11648;49.306;6.934;2023-08-06T03:26:05;97403.94;;;17.54;85.51
22964;BME280;11648;49.306;6.934;2023-08-06T03:28:32;97406.38;;;17.58;85.56
22964;BME280;11648;49.306;6.934;2023-08-06T03:31:03;97415.13;;;17.76;84.97
22964;BME280;11648;49.306;6.934;2023-08-06T03:33:38;97406.81;;;17.66;85.43
22964;BME280;11648;49.306;6.934;2023-08-06T03:36:12;97405.56;;;17.41;86.28
22964;BME280;11648;49.306;6.934;2023-08-06T03:38:40;97405.78;;;17.69;85.73
22964;BME280;11648;49.306;6.934;2023-08-06T03:41:08;97400.84;;;17.46;87.02
22964;BME280;11648;49.306;6.934;2023-08-06T03:43:35;97394.78;;;17.59;87.05
22964;BME280;11648;49.306;6.934;2023-08-06T03:46:05;97395.88;;;17.55;87.04
22964;BME280;11648;49.306;6.934;2023-08-06T03:48:33;97390.78;;;17.51;87.31
22964;BME280;11648;49.306;6.934;2023-08-06T03:51:00;97393.28;;;17.38;87.63
22964;BME280;11648;49.306;6.934;2023-08-06T03:53:28;97397.84;;;17.52;87.34
22964;BME280;11648;49.306;6.934;2023-08-06T03:55:55;97391.59;;;17.53;86.87
22964;BME280;11648;49.306;6.934;2023-08-06T03:58:26;97393.38;;;17.37;87.11
22964;BME280;11648;49.306;6.934;2023-08-06T04:01:00;97398.25;;;17.44;87.24
22964;BME280;11648;49.306;6.934;2023-08-06T04:03:31;97397.22;;;17.47;87.27
22964;BME280;11648;49.306;6.934;2023-08-06T04:05:59;97399.72;;;17.50;87.39
22964;BME280;11648;49.306;6.934;2023-08-06T04:08:27;97401.78;;;17.45;87.71
22964;BME280;11648;49.306;6.934;2023-08-06T04:10:54;97401.41;;;17.35;88.06
22964;BME280;11648;49.306;6.934;2023-08-06T04:13:20;97403.94;;;17.38;87.89
22964;BME280;11648;49.306;6.934;2023-08-06T04:15:47;97399.78;;;17.33;88.41
22964;BME280;11648;49.306;6.934;2023-08-06T04:18:14;97394.16;;;17.54;87.63
22964;BME280;11648;49.306;6.934;2023-08-06T04:20:45;97396.03;;;17.52;87.60
22964;BME280;11648;49.306;6.934;2023-08-06T04:23:12;97394.50;;;17.64;87.01
22964;BME280;11648;49.306;6.934;2023-08-06T04:25:39;97395.13;;;17.69;86.85
22964;BME280;11648;49.306;6.934;2023-08-06T04:28:07;97399.16;;;17.76;86.38
22964;BME280;11648;49.306;6.934;2023-08-06T04:30:34;97398.41;;;17.74;86.22
22964;BME280;11648;49.306;6.934;2023-08-06T04:33:02;97386.78;;;17.75;86.19
22964;BME280;11648;49.306;6.934;2023-08-06T04:35:28;97391.53;;;17.70;86.35
22964;BME280;11648;49.306;6.934;2023-08-06T04:37:56;97389.53;;;17.73;86.32
22964;BME280;11648;49.306;6.934;2023-08-06T04:40:22;97396.06;;;17.68;85.67
22964;BME280;11648;49.306;6.934;2023-08-06T04:42:49;97397.97;;;17.82;85.91
22964;BME280;11648;49.306;6.934;2023-08-06T04:45:17;97397.00;;;17.83;85.84
22964;BME280;11648;49.306;6.934;2023-08-06T04:47:44;97397.09;;;17.65;86.63
22964;BME280;11648;49.306;6.934;2023-08-06T04:50:10;97399.94;;;17.78;86.31
22964;BME280;11648;49.306;6.934;2023-08-06T04:52:37;97395.06;;;17.70;86.39
22964;BME280;11648;49.306;6.934;2023-08-06T04:55:04;97392.66;;;17.82;85.90
22964;BME280;11648;49.306;6.934;2023-08-06T04:57:32;97397.88;;;17.83;85.77
22964;BME280;11648;49.306;6.934;2023-08-06T04:59:59;97393.41;;;17.68;86.91
22964;BME280;11648;49.306;6.934;2023-08-06T05:02:26;97389.63;;;17.72;86.65
22964;BME280;11648;49.306;6.934;2023-08-06T05:04:52;97387.31;;;17.66;86.84
22964;BME280;11648;49.306;6.934;2023-08-06T05:07:19;97397.16;;;17.64;87.30
22964;BME280;11648;49.306;6.934;2023-08-06T05:09:46;97385.09;;;17.74;87.14
22964;BME280;11648;49.306;6.934;2023-08-06T05:12:13;97389.69;;;17.86;86.72
22964;BME280;11648;49.306;6.934;2023-08-06T05:14:39;97394.16;;;17.86;86.77
22964;BME280;11648;49.306;6.934;2023-08-06T05:17:06;97396.69;;;17.89;86.78
22964;BME280;11648;49.306;6.934;2023-08-06T05:19:33;97402.50;;;17.80;87.15
22964;BME280;11648;49.306;6.934;2023-08-06T05:21:59;97399.84;;;17.80;87.07
22964;BME280;11648;49.306;6.934;2023-08-06T05:24:28;97398.91;;;17.81;87.23
22964;BME280;11648;49.306;6.934;2023-08-06T05:26:54;97409.03;;;17.74;87.19
22964;BME280;11648;49.306;6.934;2023-08-06T05:29:21;97405.97;;;17.82;87.09
22964;BME280;11648;49.306;6.934;2023-08-06T05:31:48;97412.09;;;17.82;87.30
22964;BME280;11648;49.306;6.934;2023-08-06T05:34:14;97414.44;;;17.88;86.90
22964;BME280;11648;49.306;6.934;2023-08-06T05:36:41;97414.94;;;17.95;86.14
22964;BME280;11648;49.306;6.934;2023-08-06T05:39:08;97423.63;;;17.98;86.03
22964;BME280;11648;49.306;6.934;2023-08-06T05:41:34;97434.78;;;18.05;85.97
22964;BME280;11648;49.306;6.934;2023-08-06T05:44:01;97440.66;;;17.96;85.85
22964;BME280;11648;49.306;6.934;2023-08-06T05:46:30;97434.34;;;18.12;85.64
22964;BME280;11648;49.306;6.934;2023-08-06T05:48:56;97435.38;;;18.10;85.49
22964;BME280;11648;49.306;6.934;2023-08-06T05:51:23;97438.19;;;18.07;86.02
22964;BME280;11648;49.306;6.934;2023-08-06T05:53:50;97442.84;;;18.19;85.45
22964;BME280;11648;49.306;6.934;2023-08-06T05:56:16;97437.75;;;18.30;85.21
22964;BME280;11648;49.306;6.934;2023-08-06T05:58:43;97437.00;;;18.28;85.63
22964;BME280;11648;49.306;6.934;2023-08-06T06:01:10;97440.50;;;18.28;85.37
22964;BME280;11648;49.306;6.934;2023-08-06T06:03:37;97449.97;;;18.18;86.04
22964;BME280;11648;49.306;6.934;2023-08-06T06:06:03;97451.06;;;18.30;85.38
22964;BME280;11648;49.306;6.934;2023-08-06T06:08:30;97452.13;;;18.27;85.41
22964;BME280;11648;49.306;6.934;2023-08-06T06:10:58;97454.59;;;18.31;85.25
22964;BME280;11648;49.306;6.934;2023-08-06T06:13:24;97453.00;;;18.12;86.08
22964;BME280;11648;49.306;6.934;2023-08-06T06:15:54;97459.75;;;18.34;85.49
22964;BME280;11648;49.306;6.934;2023-08-06T06:18:22;97466.81;;;18.35;85.51
22964;BME280;11648;49.306;6.934;2023-08-06T06:20:49;97471.28;;;18.34;85.14
22964;BME280;11648;49.306;6.934;2023-08-06T06:23:16;97467.00;;;18.32;84.79
22964;BME280;11648;49.306;6.934;2023-08-06T06:25:49;97477.59;;;18.47;83.73
22964;BME280;11648;49.306;6.934;2023-08-06T06:28:18;97484.06;;;18.59;83.46
22964;BME280;11648;49.306;6.934;2023-08-06T06:30:45;97477.69;;;18.46;83.78
22964;BME280;11648;49.306;6.934;2023-08-06T06:33:12;97478.66;;;18.60;83.14
22964;BME280;11648;49.306;6.934;2023-08-06T06:35:39;97482.94;;;18.63;83.22
22964;BME280;11648;49.306;6.934;2023-08-06T06:38:05;97484.38;;;18.68;83.00
22964;BME280;11648;49.306;6.934;2023-08-06T06:40:32;97490.78;;;18.80;83.09
22964;BME280;11648;49.306;6.934;2023-08-06T06:42:59;97482.91;;;18.79;82.79
22964;BME280;11648;49.306;6.934;2023-08-06T06:45:26;97472.31;;;18.77;83.16
22964;BME280;11648;49.306;6.934;2023-08-06T06:47:53;97480.50;;;18.74;83.14
22964;BME280;11648;49.306;6.934;2023-08-06T06:50:19;97476.81;;;18.91;82.87
22964;BME280;11648;49.306;6.934;2023-08-06T06:52:47;97478.06;;;18.85;83.17
22964;BME280;11648;49.306;6.934;2023-08-06T06:55:13;97480.69;;;18.71;83.31
22964;BME280;11648;49.306;6.934;2023-08-06T06:57:40;97486.09;;;18.69;83.78
22964;BME280;11648;49.306;6.934;2023-08-06T07:00:07;97481.56;;;18.56;83.88
22964;BME280;11648;49.306;6.934;2023-08-06T07:02:34;97499.19;;;18.58;84.17
22964;BME280;11648;49.306;6.934;2023-08-06T07:05:01;97497.97;;;18.48;83.86
22964;BME280;11648;49.306;6.934;2023-08-06T07:07:27;97502.19;;;18.37;83.89
22964;BME280;11648;49.306;6.934;2023-08-06T07:09:54;97504.97;;;18.51;84.00
22964;BME280;11648;49.306;6.934;2023-08-06T07:12:21;97509.81;;;18.74;82.27
22964;BME280;11648;49.306;6.934;2023-08-06T07:14:48;97513.06;;;19.09;81.42
22964;BME280;11648;49.306;6.934;2023-08-06T07:17:15;97511.19;;;19.11;80.92
22964;BME280;11648;49.306;6.934;2023-08-06T07:19:41;97517.84;;;19.18;80.35
22964;BME280;11648;49.306;6.934;2023-08-06T07:22:08;97518.41;;;19.23;80.01
22964;BME280;11648;49.306;6.934;2023-08-06T07:24:35;97511.22;;;19.39;80.01
22964;BME280;11648;49.306;6.934;2023-08-06T07:27:03;97525.38;;;19.25;79.74
22964;BME280;11648;49.306;6.934;2023-08-06T07:29:29;97526.00;;;19.45;79.55
22964;BME280;11648;49.306;6.934;2023-08-06T07:31:56;97530.53;;;19.14;79.66
22964;BME280;11648;49.306;6.934;2023-08-06T07:34:23;97536.63;;;19.31;79.49
22964;BME280;11648;49.306;6.934;2023-08-06T07:36:49;97536.13;;;19.10;80.52
22964;BME280;11648;49.306;6.934;2023-08-06T07:39:16;97535.78;;;19.30;80.32
22964;BME280;11648;49.306;6.934;2023-08-06T07:41:43;97544.53;;;19.18;79.96
22964;BME280;11648;49.306;6.934;2023-08-06T07:44:12;97534.34;;;19.24;80.01
22964;BME280;11648;49.306;6.934;2023-08-06T07:46:39;97537.91;;;19.39;79.67
22964;BME280;11648;49.306;6.934;2023-08-06T07:49:06;97539.09;;;19.63;79.16
22964;BME280;11648;49.306;6.934;2023-08-06T07:51:32;97546.03;;;19.94;77.57
22964;BME280;11648;49.306;6.934;2023-08-06T07:53:59;97532.97;;;20.04;77.26
22964;BME280;11648;49.306;6.934;2023-08-06T07:56:26;97543.44;;;20.35;75.30
22964;BME280;11648;49.306;6.934;2023-08-06T07:58:52;97543.44;;;20.21;74.81
22964;BME280;11648;49.306;6.934;2023-08-06T08:01:19;97552.53;;;20.33;74.08
22964;BME280;11648;49.306;6.934;2023-08-06T08:03:46;97540.03;;;20.05;74.82
22964;BME280;11648;49.306;6.934;2023-08-06T08:06:12;97549.50;;;19.96;75.13
22964;BME280;11648;49.306;6.934;2023-08-06T08:08:39;97562.94;;;19.66;75.52
22964;BME280;11648;49.306;6.934;2023-08-06T08:11:06;97565.97;;;19.46;76.33
22964;BME280;11648;49.306;6.934;2023-08-06T08:13:33;97560.56;;;19.32;77.07
22964;BME280;11648;49.306;6.934;2023-08-06T08:16:01;97575.13;;;19.27;77.82
22964;BME280;11648;49.306;6.934;2023-08-06T08:18:28;97568.66;;;19.01;78.12
22964;BME280;11648;49.306;6.934;2023-08-06T08:20:54;97579.69;;;19.10;78.93
22964;BME280;11648;49.306;6.934;2023-08-06T08:23:21;97573.88;;;18.88;78.15
22964;BME280;11648;49.306;6.934;2023-08-06T08:25:48;97591.28;;;19.09;77.84
22964;BME280;11648;49.306;6.934;2023-08-06T08:28:14;97581.50;;;18.94;77.95
22964;BME280;11648;49.306;6.934;2023-08-06T08:30:42;97591.41;;;18.92;78.76
22964;BME280;11648;49.306;6.934;2023-08-06T08:33:09;97589.88;;;18.72;79.34
22964;BME280;11648;49.306;6.934;2023-08-06T08:35:36;97586.09;;;18.77;79.74
22964;BME280;11648;49.306;6.934;2023-08-06T08:38:03;97587.88;;;18.92;78.98
22964;BME280;11648;49.306;6.934;2023-08-06T08:40:32;97587.16;;;18.74;79.37
22964;BME280;11648;49.306;6.934;2023-08-06T08:43:00;97601.59;;;18.86;79.72
22964;BME280;11648;49.306;6.934;2023-08-06T08:45:29;97613.38;;;18.82;79.77
22964;BME280;11648;49.306;6.934;2023-08-06T08:47:56;97614.50;;;18.78;79.97
22964;BME280;11648;49.306;6.934;2023-08-06T08:50:23;97608.91;;;19.12;78.65
22964;BME280;11648;49.306;6.934;2023-08-06T08:52:50;97614.00;;;18.71;80.04
22964;BME280;11648;49.306;6.934;2023-08-06T08:55:17;97628.66;;;18.94;79.07
22964;BME280;11648;49.306;6.934;2023-08-06T08:57:44;97634.28;;;18.89;79.40
22964;BME280;11648;49.306;6.934;2023-08-06T09:00:11;97638.19;;;18.98;80.22
22964;BME280;11648;49.306;6.934;2023-08-06T09:02:39;97642.91;;;19.08;78.19
22964;BME280;11648;49.306;6.934;2023-08-06T09:05:07;97643.53;;;19.13;78.10
22964;BME280;11648;49.306;6.934;2023-08-06T09:07:40;97655.88;;;19.30;78.28
22964;BME280;11648;49.306;6.934;2023-08-06T09:10:10;97651.22;;;19.49;76.93
22964;BME280;11648;49.306;6.934;2023-08-06T09:12:37;97665.41;;;19.34;77.17
22964;BME280;11648;49.306;6.934;2023-08-06T09:15:04;97666.28;;;19.50;75.98
22964;BME280;11648;49.306;6.934;2023-08-06T09:17:31;97667.28;;;19.18;76.65
22964;BME280;11648;49.306;6.934;2023-08-06T09:19:58;97677.28;;;19.14;77.17
22964;BME280;11648;49.306;6.934;2023-08-06T09:22:33;97674.50;;;19.00;78.11
22964;BME280;11648;49.306;6.934;2023-08-06T09:25:00;97674.78;;;18.96;78.38
22964;BME280;11648;49.306;6.934;2023-08-06T09:27:27;97682.50;;;19.00;77.54
22964;BME280;11648;49.306;6.934;2023-08-06T09:29:54;97684.16;;;18.87;77.84
22964;BME280;11648;49.306;6.934;2023-08-06T09:32:20;97687.16;;;18.97;78.49
22964;BME280;11648;49.306;6.934;2023-08-06T09:34:55;97690.94;;;19.08;78.03
22964;BME280;11648;49.306;6.934;2023-08-06T09:37:22;97702.41;;;19.10;77.37
22964;BME280;11648;49.306;6.934;2023-08-06T09:39:49;97705.75;;;19.14;76.94
22964;BME280;11648;49.306;6.934;2023-08-06T09:42:18;97699.63;;;19.12;75.08
22964;BME280;11648;49.306;6.934;2023-08-06T09:44:44;97707.03;;;19.07;75.59
22964;BME280;11648;49.306;6.934;2023-08-06T09:47:11;97709.28;;;19.14;75.73
22964;BME280;11648;49.306;6.934;2023-08-06T09:49:42;97713.81;;;19.28;74.75
22964;BME280;11648;49.306;6.934;2023-08-06T09:52:11;97715.44;;;19.31;74.71
22964;BME280;11648;49.306;6.934;2023-08-06T09:54:38;97723.03;;;19.22;74.66
22964;BME280;11648;49.306;6.934;2023-08-06T09:57:05;97727.84;;;19.32;75.29
22964;BME280;11648;49.306;6.934;2023-08-06T09:59:32;97729.53;;;19.64;74.03
22964;BME280;11648;49.306;6.934;2023-08-06T10:02:00;97743.28;;;20.16;72.50
22964;BME280;11648;49.306;6.934;2023-08-06T10:04:28;97735.63;;;20.40;70.95
22964;BME280;11648;49.306;6.934;2023-08-06T10:07:06;97741.19;;;20.65;69.11
22964;BME280;11648;49.306;6.934;2023-08-06T10:09:33;97743.53;;;20.69;67.54
22964;BME280;11648;49.306;6.934;2023-08-06T10:12:00;97755.50;;;20.50;67.47
22964;BME280;11648;49.306;6.934;2023-08-06T10:14:33;97748.97;;;20.26;68.02
22964;BME280;11648;49.306;6.934;2023-08-06T10:17:02;97759.53;;;20.13;68.20
22964;BME280;11648;49.306;6.934;2023-08-06T10:19:30;97765.94;;;19.81;70.42
22964;BME280;11648;49.306;6.934;2023-08-06T10:30:25;97774.44;;;19.42;73.53
22964;BME280;11648;49.306;6.934;2023-08-06T10:32:54;97767.59;;;19.36;74.01
22964;BME280;11648;49.306;6.934;2023-08-06T10:38:04;97780.09;;;19.36;74.42
22964;BME280;11648;49.306;6.934;2023-08-06T10:40:32;97775.28;;;19.11;74.56
22964;BME280;11648;49.306;6.934;2023-08-06T10:43:00;97785.19;;;19.09;73.99
22964;BME280;11648;49.306;6.934;2023-08-06T10:45:27;97784.75;;;19.16;74.15
22964;BME280;11648;49.306;6.934;2023-08-06T10:47:57;97785.63;;;19.48;72.29
22964;BME280;11648;49.306;6.934;2023-08-06T10:50:24;97791.75;;;19.50;71.82
22964;BME280;11648;49.306;6.934;2023-08-06T10:52:51;97784.25;;;19.87;70.80
22964;BME280;11648;49.306;6.934;2023-08-06T10:55:27;97780.94;;;19.97;68.84
22964;BME280;11648;49.306;6.934;2023-08-06T10:57:54;97772.69;;;20.16;67.93
22964;BME280;11648;49.306;6.934;2023-08-06T11:00:22;97790.53;;;20.45;67.49
22964;BME280;11648;49.306;6.934;2023-08-06T11:02:52;97785.66;;;20.38;67.05
22964;BME280;11648;49.306;6.934;2023-08-06T11:05:19;97793.41;;;20.70;65.97
22964;BME280;11648;49.306;6.934;2023-08-06T11:07:46;97787.50;;;20.94;65.06
22964;BME280;11648;49.306;6.934;2023-08-06T11:10:15;97792.66;;;21.11;64.21
22964;BME280;11648;49.306;6.934;2023-08-06T11:12:42;97797.56;;;21.45;63.20
22964;BME280;11648;49.306;6.934;2023-08-06T11:15:09;97806.91;;;21.26;62.83
22964;BME280;11648;49.306;6.934;2023-08-06T11:17:39;97798.28;;;20.92;63.23
22964;BME280;11648;49.306;6.934;2023-08-06T11:20:07;97812.13;;;20.56;65.11
22964;BME280;11648;49.306;6.934;2023-08-06T11:22:35;97816.88;;;20.37;65.12
22964;BME280;11648;49.306;6.934;2023-08-06T11:25:02;97823.59;;;20.58;64.73
22964;BME280;11648;49.306;6.934;2023-08-06T11:27:29;97820.75;;;20.61;65.38
22964;BME280;11648;49.306;6.934;2023-08-06T11:29:56;97824.56;;;20.86;64.95
22964;BME280;11648;49.306;6.934;2023-08-06T11:32:23;97815.59;;;21.29;63.89
22964;BME280;11648;49.306;6.934;2023-08-06T11:34:49;97819.13;;;21.30;64.07
22964;BME280;11648;49.306;6.934;2023-08-06T11:37:20;97828.88;;;20.88;64.25
22964;BME280;11648;49.306;6.934;2023-08-06T11:39:49;97818.09;;;20.76;64.25
22964;BME280;11648;49.306;6.934;2023-08-06T11:42:16;97834.59;;;20.54;66.84
22964;BME280;11648;49.306;6.934;2023-08-06T11:44:43;97834.28;;;20.58;67.15
22964;BME280;11648;49.306;6.934;2023-08-06T11:47:16;97831.34;;;20.77;66.30
22964;BME280;11648;49.306;6.934;2023-08-06T11:49:48;97833.06;;;20.92;64.82
22964;BME280;11648;49.306;6.934;2023-08-06T11:52:20;97822.09;;;21.25;62.22
22964;BME280;11648;49.306;6.934;2023-08-06T11:54:51;97843.97;;;21.03;65.05
22964;BME280;11648;49.306;6.934;2023-08-06T11:57:25;97849.59;;;20.85;68.03
22964;BME280;11648;49.306;6.934;2023-08-06T11:59:53;97839.59;;;20.44;67.21
22964;BME280;11648;49.306;6.934;2023-08-06T12:02:21;97845.72;;;20.32;69.12
22964;BME280;11648;49.306;6.934;2023-08-06T12:07:47;97843.22;;;22.24;64.09
22964;BME280;11648;49.306;6.934;2023-08-06T12:10:14;97830.88;;;22.74;59.38
22964;BME280;11648;49.306;6.934;2023-08-06T12:12:42;97834.03;;;22.53;58.70
22964;BME280;11648;49.306;6.934;2023-08-06T12:15:09;97834.22;;;22.25;59.84
22964;BME280;11648;49.306;6.934;2023-08-06T12:17:36;97842.38;;;22.36;58.71
22964;BME280;11648;49.306;6.934;2023-08-06T12:20:04;97831.38;;;23.42;54.90
22964;BME280;11648;49.306;6.934;2023-08-06T12:22:32;97822.75;;;25.57;51.39
22964;BME280;11648;49.306;6.934;2023-08-06T12:25:02;97812.28;;;27.21;45.54
22964;BME280;11648;49.306;6.934;2023-08-06T12:27:35;97817.97;;;27.18;44.18
22964;BME280;11648;49.306;6.934;2023-08-06T12:30:03;97826.03;;;26.46;45.38
22964;BME280;11648;49.306;6.934;2023-08-06T12:32:31;97838.31;;;25.65;47.69
22964;BME280;11648;49.306;6.934;2023-08-06T12:34:58;97840.91;;;24.76;49.13
22964;BME280;11648;49.306;6.934;2023-08-06T12:37:25;97832.78;;;25.33;48.51
22964;BME280;11648;49.306;6.934;2023-08-06T12:39:52;97849.19;;;25.19;48.34
22964;BME280;11648;49.306;6.934;2023-08-06T12:42:19;97843.69;;;24.52;49.20
22964;BME280;11648;49.306;6.934;2023-08-06T12:44:48;97847.63;;;24.24;49.72
22964;BME280;11648;49.306;6.934;2023-08-06T12:47:18;97844.47;;;24.06;49.25
22964;BME280;11648;49.306;6.934;2023-08-06T12:49:46;97846.34;;;23.57;49.97
22964;BME280;11648;49.306;6.934;2023-08-06T12:52:13;97876.06;;;22.92;52.45
22964;BME280;11648;49.306;6.934;2023-08-06T12:54:42;97874.88;;;21.78;59.50
22964;BME280;11648;49.306;6.934;2023-08-06T12:57:09;97897.22;;;21.08;63.24
22964;BME280;11648;49.306;6.934;2023-08-06T12:59:35;97888.25;;;21.23;64.02
22964;BME280;11648;49.306;6.934;2023-08-06T13:02:03;97882.38;;;21.59;62.46
22964;BME280;11648;49.306;6.934;2023-08-06T13:04:31;97886.31;;;22.48;62.38
22964;BME280;11648;49.306;6.934;2023-08-06T13:06:58;97894.41;;;23.36;61.41
22964;BME280;11648;49.306;6.934;2023-08-06T13:09:25;97875.56;;;23.74;56.65
22964;BME280;11648;49.306;6.934;2023-08-06T13:11:54;97878.56;;;24.06;56.06
22964;BME280;11648;49.306;6.934;2023-08-06T13:14:22;97875.88;;;24.30;56.52
22964;BME280;11648;49.306;6.934;2023-08-06T13:16:48;97877.66;;;24.18;54.53
22964;BME280;11648;49.306;6.934;2023-08-06T13:19:15;97881.63;;;23.89;52.92
22964;BME280;11648;49.306;6.934;2023-08-06T13:24:18;97859.22;;;23.77;52.00